createdAt,value
2022-10-13T00:00:51.714Z,152394.31
2022-10-13T00:03:19.734Z,152380.13
2022-10-13T00:05:49.332Z,152433.06
2022-10-13T00:08:19.924Z,152439.53
2022-10-13T00:10:49.523Z,152452.41
2022-10-13T00:13:20.230Z,152455.00
2022-10-13T00:15:49.161Z,152469.19
2022-10-13T00:18:17.410Z,152524.69
2022-10-13T00:20:47.914Z,152511.81
2022-10-13T00:23:16.435Z,152520.84
2022-10-13T00:25:44.681Z,152541.50
2022-10-13T00:28:13.222Z,152549.25
2022-10-13T00:30:42.495Z,152551.84
2022-10-13T00:33:12.029Z,152541.50
2022-10-13T00:35:43.086Z,152595.75
2022-10-13T00:38:11.358Z,152594.47
2022-10-13T00:40:49.674Z,152620.25
2022-10-13T00:43:19.774Z,152589.31
2022-10-13T00:45:52.166Z,152597.03
2022-10-13T00:48:23.369Z,152560.88
2022-10-13T00:50:51.868Z,152577.69
2022-10-13T00:53:22.547Z,152571.25
2022-10-13T00:55:52.500Z,152562.16
2022-10-13T00:58:24.348Z,152569.91
2022-10-13T01:00:54.486Z,152541.50
2022-10-13T01:03:22.820Z,152573.78
2022-10-13T01:05:52.488Z,152602.19
2022-10-13T01:08:21.701Z,152602.19
2022-10-13T01:10:57.886Z,152591.91
2022-10-13T01:13:35.438Z,152586.72
2022-10-13T01:16:10.440Z,152604.78
2022-10-13T01:18:47.766Z,152617.72
2022-10-13T01:21:24.605Z,152612.53
2022-10-13T01:24:26.174Z,152629.34
2022-10-13T01:27:14.154Z,152620.25
2022-10-13T01:30:09.062Z,152611.22
2022-10-13T01:32:49.807Z,152602.19
2022-10-13T01:35:22.568Z,152584.13
2022-10-13T01:37:55.898Z,152609.97
2022-10-13T01:40:27.222Z,152615.13
2022-10-13T01:43:00.437Z,152622.84
2022-10-13T01:45:33.135Z,152624.16
2022-10-13T01:48:03.595Z,152612.53
2022-10-13T01:50:33.595Z,152599.59
2022-10-13T01:53:03.187Z,152634.47
2022-10-13T01:55:32.170Z,152640.97
2022-10-13T01:57:59.919Z,152647.41
2022-10-13T02:00:35.519Z,152637.06
2022-10-13T02:03:11.070Z,152640.97
2022-10-13T02:05:49.221Z,152646.09
2022-10-13T02:08:23.893Z,152635.78
2022-10-13T02:10:58.321Z,152670.66
2022-10-13T02:13:29.231Z,152631.94
2022-10-13T02:16:01.501Z,152671.94
2022-10-13T02:18:33.565Z,152639.66
2022-10-13T02:21:02.861Z,152673.25
2022-10-13T02:23:31.195Z,152679.72
2022-10-13T02:26:01.282Z,152688.75
2022-10-13T02:28:29.907Z,152677.13
2022-10-13T02:30:59.214Z,152699.09
2022-10-13T02:33:27.084Z,152708.13
2022-10-13T02:35:54.907Z,152708.13
2022-10-13T02:38:22.772Z,152723.63
2022-10-13T02:40:50.554Z,152718.44
2022-10-13T02:43:18.217Z,152735.25
2022-10-13T02:45:45.944Z,152706.81
2022-10-13T02:48:14.961Z,152736.56
2022-10-13T02:50:42.756Z,152750.78
2022-10-13T02:53:10.400Z,152754.63
2022-10-13T02:55:38.147Z,152749.47
2022-10-13T02:58:05.893Z,152753.31
2022-10-13T03:00:33.585Z,152759.81
2022-10-13T03:03:01.198Z,152757.22
2022-10-13T03:05:30.271Z,152754.63
2022-10-13T03:07:58.370Z,152748.19
2022-10-13T03:10:26.116Z,152754.63
2022-10-13T03:12:55.380Z,152743.00
2022-10-13T03:15:23.289Z,152754.63
2022-10-13T03:17:51.042Z,152719.75
2022-10-13T03:20:19.230Z,152771.44
2022-10-13T03:22:49.970Z,152762.41
2022-10-13T03:25:17.977Z,152762.41
2022-10-13T03:27:45.600Z,152759.81
2022-10-13T03:30:13.762Z,152758.50
2022-10-13T03:32:41.628Z,152739.16
2022-10-13T03:35:09.899Z,152741.69
2022-10-13T03:37:37.677Z,152721.03
2022-10-13T03:40:08.246Z,152706.81
2022-10-13T03:42:36.668Z,152744.28
2022-10-13T03:45:04.719Z,152740.44
2022-10-13T03:47:32.748Z,152772.72
2022-10-13T03:50:00.455Z,152767.53
2022-10-13T03:52:28.164Z,152772.72
2022-10-13T03:54:56.015Z,152766.28
2022-10-13T03:57:25.078Z,152783.06
2022-10-13T03:59:52.777Z,152785.66
2022-10-13T04:02:20.666Z,152758.50
2022-10-13T04:04:48.581Z,152790.78
2022-10-13T04:07:16.287Z,152785.66
2022-10-13T04:09:44.050Z,152790.78
2022-10-13T04:12:12.140Z,152785.66
2022-10-13T04:14:41.188Z,152794.69
2022-10-13T04:17:08.921Z,152767.53
2022-10-13T04:19:36.678Z,152801.16
2022-10-13T04:22:04.496Z,152795.97
2022-10-13T04:24:32.239Z,152814.09
2022-10-13T04:26:59.847Z,152815.41
2022-10-13T04:29:27.580Z,152763.69
2022-10-13T04:31:56.618Z,152788.25
2022-10-13T04:34:24.295Z,152828.31
2022-10-13T04:36:52.391Z,152830.91
2022-10-13T04:39:20.128Z,152828.31
2022-10-13T04:41:47.749Z,152843.88
2022-10-13T04:44:15.532Z,152814.09
2022-10-13T04:46:43.332Z,152837.38
2022-10-13T04:49:12.542Z,152834.81
2022-10-13T04:51:40.297Z,152851.59
2022-10-13T04:54:07.935Z,152874.84
2022-10-13T04:56:36.603Z,152883.94
2022-10-13T04:59:05.793Z,152882.63
2022-10-13T05:01:34.175Z,152890.38
2022-10-13T05:04:03.609Z,152896.84
2022-10-13T05:06:35.805Z,152912.34
2022-10-13T05:09:04.985Z,152917.50
2022-10-13T05:11:33.698Z,152916.25
2022-10-13T05:14:02.435Z,152918.84
2022-10-13T05:16:30.992Z,152909.75
2022-10-13T05:18:58.743Z,152883.94
2022-10-13T05:21:28.509Z,152914.91
2022-10-13T05:23:58.686Z,152863.22
2022-10-13T05:26:29.075Z,152940.78
2022-10-13T05:28:57.133Z,152934.31
2022-10-13T05:31:26.399Z,152942.09
2022-10-13T05:33:54.715Z,152934.31
2022-10-13T05:36:24.795Z,152935.59
2022-10-13T05:38:53.348Z,152943.38
2022-10-13T05:41:23.453Z,152933.00
2022-10-13T05:43:54.049Z,152961.47
2022-10-13T05:46:21.755Z,152916.25
2022-10-13T05:48:49.646Z,152945.97
2022-10-13T05:51:20.652Z,152939.50
2022-10-13T05:53:55.338Z,152943.38
2022-10-13T05:56:31.040Z,152933.00
2022-10-13T05:59:02.114Z,152945.97
2022-10-13T06:01:33.770Z,152944.69
2022-10-13T06:04:07.238Z,152931.72
2022-10-13T06:06:35.073Z,152951.16
2022-10-13T06:09:02.914Z,152958.88
2022-10-13T06:11:31.978Z,152983.47
2022-10-13T06:13:59.744Z,152938.19
2022-10-13T06:16:27.479Z,152965.38
2022-10-13T06:18:55.240Z,152953.72
2022-10-13T06:21:22.917Z,152970.50
2022-10-13T06:23:50.607Z,152917.50
2022-10-13T06:26:18.214Z,152953.72
2022-10-13T06:28:50.455Z,152951.16
2022-10-13T06:31:19.519Z,152955.00
2022-10-13T06:33:47.169Z,152966.63
2022-10-13T06:36:15.065Z,152971.81
2022-10-13T06:38:42.819Z,152979.59
2022-10-13T06:41:11.121Z,152967.97
2022-10-13T06:43:40.413Z,152995.09
2022-10-13T06:46:09.925Z,152991.22
2022-10-13T06:48:37.731Z,152984.72
2022-10-13T06:51:06.880Z,152987.31
2022-10-13T06:53:34.958Z,153004.13
2022-10-13T06:56:06.014Z,153009.31
2022-10-13T06:58:35.041Z,152975.69
2022-10-13T07:01:02.895Z,152977.00
2022-10-13T07:03:32.102Z,153024.81
2022-10-13T07:06:01.924Z,153013.19
2022-10-13T07:08:29.717Z,153046.81
2022-10-13T07:10:57.756Z,153042.91
2022-10-13T07:13:25.689Z,153033.84
2022-10-13T07:15:53.467Z,153059.72
2022-10-13T07:18:21.237Z,153059.72
2022-10-13T07:20:50.361Z,153095.97
2022-10-13T07:23:18.138Z,153106.28
2022-10-13T07:25:45.895Z,153142.53
2022-10-13T07:28:13.668Z,153155.44
2022-10-13T07:30:41.544Z,153160.63
2022-10-13T07:33:09.462Z,153189.09
2022-10-13T07:35:39.960Z,153227.94
2022-10-13T07:38:30.284Z,153264.16
2022-10-13T07:41:00.808Z,153253.81
2022-10-13T07:43:28.705Z,153243.47
2022-10-13T07:45:56.627Z,153240.88
2022-10-13T07:48:24.345Z,153279.69
2022-10-13T07:50:52.240Z,153309.44
2022-10-13T07:53:21.506Z,153312.03
2022-10-13T07:55:49.322Z,153312.03
2022-10-13T07:58:17.282Z,153297.78
2022-10-13T08:00:45.218Z,153292.66
2022-10-13T08:03:12.925Z,153334.03
2022-10-13T08:05:40.542Z,153346.97
2022-10-13T08:08:08.252Z,153367.66
2022-10-13T08:10:38.004Z,153375.44
2022-10-13T08:13:05.746Z,153401.34
2022-10-13T08:15:33.459Z,153414.31
2022-10-13T08:18:01.238Z,153450.53
2022-10-13T08:20:40.976Z,153447.94
2022-10-13T08:23:11.628Z,153469.97
2022-10-13T08:25:41.907Z,153466.03
2022-10-13T08:28:18.518Z,153481.63
2022-10-13T08:30:47.126Z,153516.56
2022-10-13T08:33:15.743Z,153507.50
2022-10-13T08:35:43.631Z,153530.81
2022-10-13T08:38:11.646Z,153529.50
2022-10-13T08:40:41.599Z,153576.16
2022-10-13T08:43:10.373Z,153559.25
2022-10-13T08:45:42.198Z,153565.81
2022-10-13T08:48:16.483Z,153585.22
2022-10-13T08:50:47.791Z,153583.94
2022-10-13T08:53:30.765Z,153602.06
2022-10-13T08:56:04.134Z,153613.72
2022-10-13T08:58:34.205Z,153637.03
2022-10-13T09:01:13.278Z,153627.97
2022-10-13T09:03:49.718Z,153647.41
2022-10-13T09:06:21.670Z,153631.84
2022-10-13T09:08:54.362Z,153616.31
2022-10-13T09:11:23.983Z,153629.28
2022-10-13T09:13:55.750Z,153626.69
2022-10-13T09:16:29.141Z,153652.59
2022-10-13T09:18:57.017Z,153674.59
2022-10-13T09:21:26.432Z,153729.00
2022-10-13T09:23:55.039Z,153732.88
2022-10-13T09:26:26.016Z,153798.97
2022-10-13T09:28:54.247Z,153840.44
2022-10-13T09:31:26.082Z,153888.44
2022-10-13T09:34:01.811Z,153914.38
2022-10-13T09:36:31.176Z,153936.38
2022-10-13T09:39:13.544Z,153918.25
2022-10-13T09:41:46.506Z,153902.72
2022-10-13T09:44:18.240Z,154005.09
2022-10-13T09:46:52.743Z,153992.16
2022-10-13T09:49:34.639Z,153979.19
2022-10-13T09:52:05.713Z,154001.22
2022-10-13T09:54:45.865Z,154067.31
2022-10-13T09:57:23.152Z,154114.06
2022-10-13T09:59:52.632Z,154134.78
2022-10-13T10:02:29.248Z,154041.44
2022-10-13T10:05:02.156Z,154177.56
2022-10-13T10:07:36.223Z,154145.13
2022-10-13T10:10:09.277Z,154108.84
2022-10-13T10:12:42.270Z,154134.78
2022-10-13T10:15:20.990Z,154171.09
2022-10-13T10:17:56.266Z,154193.19
2022-10-13T10:20:40.111Z,154237.31
2022-10-13T10:23:13.923Z,154232.09
2022-10-13T10:25:45.959Z,154235.97
2022-10-13T10:28:40.617Z,154203.56
2022-10-13T10:31:20.261Z,154264.53
2022-10-13T10:33:58.356Z,154319.03
2022-10-13T10:36:32.492Z,154381.28
2022-10-13T10:39:08.278Z,154256.78
2022-10-13T10:41:45.959Z,154212.63
2022-10-13T10:44:18.544Z,154271.03
2022-10-13T10:46:49.319Z,154285.28
2022-10-13T10:49:21.458Z,154303.47
2022-10-13T10:51:50.197Z,154342.38
2022-10-13T10:54:27.596Z,154417.66
2022-10-13T10:56:59.568Z,154487.78
2022-10-13T10:59:41.676Z,154472.22
2022-10-13T11:02:24.502Z,154448.81
2022-10-13T11:04:54.770Z,154477.38
2022-10-13T11:07:57.998Z,154446.22
2022-10-13T11:10:27.252Z,154420.25
2022-10-13T11:13:20.879Z,154473.50
2022-10-13T11:15:50.885Z,154446.22
2022-10-13T11:19:10.432Z,154493.00
2022-10-13T11:22:11.775Z,154441.00
2022-10-13T11:24:48.438Z,154437.13
2022-10-13T11:27:42.069Z,154392.97
2022-10-13T11:30:47.165Z,154405.97
2022-10-13T11:33:53.032Z,154441.00
2022-10-13T11:36:49.619Z,154415.06
2022-10-13T11:39:59.499Z,154378.75
2022-10-13T11:43:23.031Z,154255.44
2022-10-13T11:46:20.460Z,154206.16
2022-10-13T11:49:21.011Z,154256.78
2022-10-13T11:52:21.994Z,154322.91
2022-10-13T11:54:52.954Z,154343.72
2022-10-13T11:57:22.661Z,154331.97
2022-10-13T11:59:55.417Z,154312.53
2022-10-13T12:02:25.415Z,154289.19
2022-10-13T12:05:07.204Z,154328.09
2022-10-13T12:07:37.972Z,154369.59
2022-10-13T12:10:09.807Z,154341.09
2022-10-13T12:12:37.975Z,154269.72
2022-10-13T12:15:29.082Z,154251.56
2022-10-13T12:17:57.230Z,154217.81
2022-10-13T12:20:29.143Z,154212.63
2022-10-13T12:22:57.731Z,154228.22
2022-10-13T12:25:27.751Z,154268.44
2022-10-13T12:27:58.720Z,154191.88
2022-10-13T12:30:29.121Z,154104.94
2022-10-13T12:32:59.143Z,154119.19
2022-10-13T12:35:30.295Z,154173.69
2022-10-13T12:38:02.722Z,154134.78
2022-10-13T12:40:31.124Z,154103.66
2022-10-13T12:42:59.297Z,154127.00
2022-10-13T12:45:30.673Z,154090.66
2022-10-13T12:47:58.535Z,154125.72
2022-10-13T12:50:39.077Z,154099.78
2022-10-13T12:53:25.103Z,153998.63
2022-10-13T12:55:58.987Z,154045.31
2022-10-13T12:58:30.067Z,153976.56
2022-10-13T13:01:10.634Z,153979.19
2022-10-13T13:03:41.827Z,153929.91
2022-10-13T13:06:27.846Z,153964.91
2022-10-13T13:09:27.302Z,153906.59
2022-10-13T13:12:27.795Z,153944.19
2022-10-13T13:15:01.288Z,153903.97
2022-10-13T13:17:56.579Z,153856.00
2022-10-13T13:20:23.641Z,153831.34
2022-10-13T13:22:52.912Z,153859.88
2022-10-13T13:25:20.822Z,153775.66
2022-10-13T13:27:49.042Z,153815.81
2022-10-13T13:30:18.667Z,153896.25
2022-10-13T13:32:46.687Z,153791.19
2022-10-13T13:35:14.718Z,153849.50
2022-10-13T13:37:45.855Z,153896.25
2022-10-13T13:40:19.187Z,153826.16
2022-10-13T13:42:48.041Z,153817.09
2022-10-13T13:45:16.611Z,153898.78
2022-10-13T13:47:44.456Z,153862.47
2022-10-13T13:50:18.087Z,153906.59
2022-10-13T13:52:45.996Z,153923.44
2022-10-13T13:55:13.841Z,153905.31
2022-10-13T13:57:43.445Z,153854.69
2022-10-13T14:00:13.270Z,153850.81
2022-10-13T14:02:41.531Z,153884.56
2022-10-13T14:05:09.791Z,153876.72
2022-10-13T14:07:37.515Z,153900.13
2022-10-13T14:10:06.159Z,153907.91
2022-10-13T14:12:34.107Z,153927.31
2022-10-13T14:15:03.395Z,153940.31
2022-10-13T14:17:31.019Z,153922.13
2022-10-13T14:19:58.667Z,153953.25
2022-10-13T14:22:26.876Z,153929.91
2022-10-13T14:24:54.899Z,153911.78
2022-10-13T14:27:22.844Z,153878.00
2022-10-13T14:29:50.562Z,153896.25
2022-10-13T14:32:19.903Z,153854.69
2022-10-13T14:34:47.828Z,153849.50
2022-10-13T14:37:15.459Z,153814.50
2022-10-13T14:39:43.189Z,153787.31
2022-10-13T14:42:10.897Z,153798.97
2022-10-13T14:44:38.569Z,153797.69
2022-10-13T14:47:06.449Z,153841.75
2022-10-13T14:49:35.647Z,153813.22
2022-10-13T14:52:03.601Z,153844.34
2022-10-13T14:54:31.328Z,153793.78
2022-10-13T14:57:00.715Z,153811.94
2022-10-13T14:59:28.911Z,153826.16
2022-10-13T15:01:56.614Z,153800.28
2022-10-13T15:04:24.381Z,153808.03
2022-10-13T15:06:53.468Z,153773.06
2022-10-13T15:09:25.637Z,153815.81
2022-10-13T15:12:01.597Z,153826.16
2022-10-13T15:14:29.307Z,153817.09
2022-10-13T15:16:56.984Z,153823.63
2022-10-13T15:19:24.623Z,153798.97
2022-10-13T15:21:53.597Z,153801.56
2022-10-13T15:24:21.504Z,153782.13
2022-10-13T15:26:49.272Z,153784.72
2022-10-13T15:29:16.883Z,153756.19
2022-10-13T15:31:44.568Z,153784.72
2022-10-13T15:34:12.194Z,153780.84
2022-10-13T15:36:39.835Z,153826.16
2022-10-13T15:39:10.794Z,153789.91
2022-10-13T15:41:38.518Z,153809.34
2022-10-13T15:44:07.058Z,153801.56
2022-10-13T15:46:34.750Z,153796.38
2022-10-13T15:49:02.454Z,153800.28
2022-10-13T15:51:30.213Z,153774.38
2022-10-13T15:53:57.894Z,153770.47
2022-10-13T15:56:27.002Z,153780.84
2022-10-13T15:58:54.803Z,153776.91
2022-10-13T16:01:22.502Z,153758.78
2022-10-13T16:03:54.557Z,153738.06
2022-10-13T16:06:22.498Z,153719.94
2022-10-13T16:08:50.297Z,153723.81
2022-10-13T16:11:20.051Z,153740.66
2022-10-13T16:13:50.817Z,153739.41
2022-10-13T16:16:19.043Z,153700.50
2022-10-13T16:18:47.331Z,153670.72
2022-10-13T16:21:18.914Z,153696.63
2022-10-13T16:23:47.323Z,153703.09
2022-10-13T16:26:16.037Z,153674.59
2022-10-13T16:28:44.048Z,153656.47
2022-10-13T16:31:15.112Z,153688.84
2022-10-13T16:33:44.422Z,153669.41
2022-10-13T16:36:14.300Z,153674.59
2022-10-13T16:38:42.754Z,153679.78
2022-10-13T16:41:13.949Z,153662.94
2022-10-13T16:43:41.900Z,153652.59
2022-10-13T16:46:13.272Z,153635.75
2022-10-13T16:48:43.740Z,153652.59
2022-10-13T16:51:14.585Z,153634.44
2022-10-13T16:53:42.923Z,153631.84
2022-10-13T16:56:10.725Z,153642.22
2022-10-13T16:58:43.277Z,153615.03
2022-10-13T17:01:12.020Z,153621.50
2022-10-13T17:03:40.417Z,153613.72
2022-10-13T17:06:11.583Z,153626.69
2022-10-13T17:08:39.336Z,153609.84
2022-10-13T17:11:07.592Z,153616.31
2022-10-13T17:13:36.950Z,153613.72
2022-10-13T17:16:05.083Z,153565.81
2022-10-13T17:18:32.906Z,153573.56
2022-10-13T17:21:02.398Z,153594.31
2022-10-13T17:23:32.707Z,153600.78
2022-10-13T17:26:03.184Z,153572.28
2022-10-13T17:28:30.966Z,153556.72
2022-10-13T17:30:59.917Z,153567.09
2022-10-13T17:33:27.784Z,153530.81
2022-10-13T17:35:59.806Z,153475.09
2022-10-13T17:38:27.636Z,153494.53
2022-10-13T17:41:01.094Z,153495.84
2022-10-13T17:43:29.402Z,153479.03
2022-10-13T17:46:12.138Z,153370.25
2022-10-13T17:48:46.140Z,153415.59
2022-10-13T17:51:16.117Z,153357.34
2022-10-13T17:53:45.201Z,153383.22
2022-10-13T17:56:16.374Z,153341.81
2022-10-13T17:58:45.396Z,153334.03
2022-10-13T18:01:16.046Z,153340.50
2022-10-13T18:03:47.699Z,153354.75
2022-10-13T18:06:16.119Z,153378.03
2022-10-13T18:08:44.211Z,153380.63
2022-10-13T18:11:15.700Z,153407.78
2022-10-13T18:13:44.531Z,153375.44
2022-10-13T18:16:14.852Z,153380.63
2022-10-13T18:18:43.753Z,153418.19
2022-10-13T18:21:13.114Z,153427.22
2022-10-13T18:23:41.729Z,153411.72
2022-10-13T18:26:11.913Z,153411.72
2022-10-13T18:28:43.512Z,153423.38
2022-10-13T18:31:13.395Z,153388.41
2022-10-13T18:33:41.578Z,153354.75
2022-10-13T18:36:14.124Z,153415.59
2022-10-13T18:38:41.840Z,153422.03
2022-10-13T18:41:09.541Z,153436.28
2022-10-13T18:43:37.147Z,153447.94
2022-10-13T18:46:06.559Z,153411.72
2022-10-13T18:48:34.929Z,153398.75
2022-10-13T18:51:06.813Z,153415.59
2022-10-13T18:53:36.407Z,153402.63
2022-10-13T18:56:05.534Z,153388.41
2022-10-13T18:58:33.863Z,153371.59
2022-10-13T19:01:02.440Z,153375.44
2022-10-13T19:03:32.729Z,153401.34
2022-10-13T19:06:00.865Z,153357.34
2022-10-13T19:08:29.738Z,153398.75
2022-10-13T19:10:57.566Z,153400.06
2022-10-13T19:13:26.512Z,153406.53
2022-10-13T19:16:00.783Z,153409.13
2022-10-13T19:18:28.555Z,153367.66
2022-10-13T19:20:57.966Z,153411.72
2022-10-13T19:23:25.656Z,153383.22
2022-10-13T19:25:53.756Z,153381.91
2022-10-13T19:28:22.086Z,153402.63
2022-10-13T19:30:50.308Z,153411.72
2022-10-13T19:33:18.585Z,153381.91
2022-10-13T19:35:48.472Z,153359.94
2022-10-13T19:38:18.531Z,153337.91
2022-10-13T19:40:49.560Z,153359.94
2022-10-13T19:43:18.098Z,153362.53
2022-10-13T19:45:57.426Z,153345.69
2022-10-13T19:48:27.498Z,153350.88
2022-10-13T19:50:55.192Z,153349.56
2022-10-13T19:53:24.474Z,153363.81
2022-10-13T19:55:52.260Z,153379.31
2022-10-13T19:58:19.986Z,153361.22
2022-10-13T20:00:49.736Z,153383.22
2022-10-13T20:03:17.709Z,153376.78
2022-10-13T20:05:45.411Z,153370.25
2022-10-13T20:08:14.254Z,153375.44
2022-10-13T20:10:44.212Z,153376.78
2022-10-13T20:13:12.395Z,153336.66
2022-10-13T20:15:41.478Z,153350.88
2022-10-13T20:18:10.058Z,153356.03
2022-10-13T20:20:38.032Z,153363.81
2022-10-13T20:23:05.623Z,153354.75
2022-10-13T20:25:36.065Z,153378.03
2022-10-13T20:28:05.592Z,153336.66
2022-10-13T20:30:34.054Z,153343.09
2022-10-13T20:33:02.020Z,153308.16
2022-10-13T20:35:30.805Z,153336.66
2022-10-13T20:37:58.537Z,153365.13
2022-10-13T20:40:26.598Z,153378.03
2022-10-13T20:42:54.220Z,153350.88
2022-10-13T20:45:23.211Z,153363.81
2022-10-13T20:47:51.301Z,153361.22
2022-10-13T20:50:19.085Z,153313.34
2022-10-13T20:52:46.740Z,153335.31
2022-10-13T20:55:14.442Z,153344.38
2022-10-13T20:57:42.065Z,153282.28
2022-10-13T21:00:11.331Z,153281.00
2022-10-13T21:02:40.327Z,153323.69
2022-10-13T21:05:08.689Z,153293.91
2022-10-13T21:07:36.301Z,153299.09
2022-10-13T21:10:04.099Z,153253.81
2022-10-13T21:12:31.903Z,153262.84
2022-10-13T21:14:59.620Z,153304.28
2022-10-13T21:17:29.876Z,153302.97
2022-10-13T21:19:58.888Z,153302.97
2022-10-13T21:22:26.592Z,153259.00
2022-10-13T21:24:54.317Z,153270.63
2022-10-13T21:27:22.234Z,153242.16
2022-10-13T21:29:50.207Z,153265.44
2022-10-13T21:32:19.474Z,153252.53
2022-10-13T21:34:48.723Z,153256.41
2022-10-13T21:37:17.833Z,153265.44
2022-10-13T21:39:45.450Z,153253.81
2022-10-13T21:42:13.128Z,153248.63
2022-10-13T21:44:40.830Z,153163.22
2022-10-13T21:47:08.583Z,153238.28
2022-10-13T21:49:36.487Z,153231.84
2022-10-13T21:52:04.266Z,153216.28
2022-10-13T21:54:33.313Z,153231.84
2022-10-13T21:57:01.231Z,153216.28
2022-10-13T21:59:29.461Z,153222.75
2022-10-13T22:01:57.210Z,153204.59
2022-10-13T22:04:24.911Z,153220.19
2022-10-13T22:06:52.554Z,153207.19
2022-10-13T22:09:20.663Z,153220.19
2022-10-13T22:11:54.137Z,153202.00
2022-10-13T22:14:24.227Z,153187.75
2022-10-13T22:16:53.856Z,153147.72
2022-10-13T22:19:22.775Z,153181.31
2022-10-13T22:21:51.116Z,153176.13
2022-10-13T22:24:20.218Z,153145.09
2022-10-13T22:26:50.792Z,153148.97
2022-10-13T22:29:21.991Z,153151.56
2022-10-13T22:31:50.145Z,153165.81
2022-10-13T22:34:18.437Z,153189.09
2022-10-13T22:36:46.240Z,153178.72
2022-10-13T22:39:14.764Z,153176.13
2022-10-13T22:41:42.775Z,153187.75
2022-10-13T22:44:11.927Z,153147.72
2022-10-13T22:46:40.734Z,153220.19
2022-10-13T22:49:09.180Z,153209.81
2022-10-13T22:51:38.283Z,153195.53
2022-10-13T22:54:06.853Z,153196.88
2022-10-13T22:56:35.753Z,153181.31
2022-10-13T22:59:06.553Z,153186.50
2022-10-13T23:01:36.218Z,153183.91
2022-10-13T23:04:04.503Z,153163.22
2022-10-13T23:06:34.301Z,153145.09
2022-10-13T23:09:02.786Z,153194.25
2022-10-13T23:11:30.522Z,153187.75
2022-10-13T23:13:58.298Z,153176.13
2022-10-13T23:16:27.536Z,153196.88
2022-10-13T23:18:56.637Z,153155.44
2022-10-13T23:21:26.970Z,153180.03
2022-10-13T23:23:56.680Z,153178.72
2022-10-13T23:26:24.397Z,153176.13
2022-10-13T23:28:52.205Z,153189.09
2022-10-13T23:31:19.912Z,153196.88
2022-10-13T23:33:47.667Z,153187.75
2022-10-13T23:36:18.660Z,153202.00
2022-10-13T23:38:46.470Z,153168.38
2022-10-13T23:41:16.390Z,153189.09
2022-10-13T23:43:44.261Z,153196.88
2022-10-13T23:46:12.210Z,153185.22
2022-10-13T23:48:40.924Z,153205.91
2022-10-13T23:51:10.680Z,153220.19
2022-10-13T23:53:40.254Z,153230.50
2022-10-13T23:56:09.322Z,153243.47
2022-10-13T23:58:37.234Z,153238.28
